N316K TJSJ-KPBI
Flight info
| Callsign | N316K |
|---|---|
| Flight time | 2h 29m |
| Altitude | 40000 |
| Route | ACONY3 SAPPO Y399 ZQA BR54V ISAAC MAHHI3 |
| Aircraft | CL60/M-SBDE1E2E3FGHIJ1J4J5J7M3RWXYZ/LB1V1D1 |
Departure
| Time | 2026-04-27 20:47 |
|---|---|
| Airport | Luis Munoz Marin International Airport (TJSJ) |
Arrival
| Time | 2026-04-27 23:16 |
|---|---|
| Airport | Palm Beach International Airport (KPBI) |
| Time | Latitude | Longitude | Altitude | Speed | Heading |
|---|---|---|---|---|---|
| 2026-04-27 20:11 | 18.44141 | -65.99947 | 19 ft | 0 kts | 63° |
| 2026-04-27 20:38 | 18.44143 | -65.99941 | 19 ft | 0 kts | 76° |
| 2026-04-27 20:42 | 18.44143 | -65.99940 | 19 ft | 1 kts | 74° |
| 2026-04-27 20:42 | 18.44178 | -65.99922 | 18 ft | 7 kts | 6° |
| 2026-04-27 20:42 | 18.44240 | -65.99928 | 19 ft | 10 kts | 340° |
| 2026-04-27 20:42 | 18.44258 | -65.99970 | 20 ft | 7 kts | 249° |
| 2026-04-27 20:43 | 18.44237 | -66.00019 | 22 ft | 7 kts | 246° |
| 2026-04-27 20:43 | 18.44209 | -66.00083 | 22 ft | 11 kts | 245° |
| 2026-04-27 20:43 | 18.44176 | -66.00171 | 22 ft | 14 kts | 252° |
| 2026-04-27 20:43 | 18.44235 | -66.00235 | 22 ft | 12 kts | 330° |
| 2026-04-27 20:44 | 18.44226 | -66.00330 | 21 ft | 16 kts | 243° |
| 2026-04-27 20:44 | 18.44173 | -66.00450 | 20 ft | 19 kts | 248° |
| 2026-04-27 20:44 | 18.44117 | -66.00593 | 21 ft | 22 kts | 247° |
| 2026-04-27 20:44 | 18.44071 | -66.00707 | 21 ft | 14 kts | 247° |
| 2026-04-27 20:45 | 18.44026 | -66.00817 | 19 ft | 18 kts | 246° |
| 2026-04-27 20:45 | 18.43972 | -66.00955 | 19 ft | 21 kts | 248° |
| 2026-04-27 20:45 | 18.43906 | -66.01114 | 16 ft | 25 kts | 245° |
| 2026-04-27 20:45 | 18.43840 | -66.01276 | 16 ft | 13 kts | 247° |
| 2026-04-27 20:46 | 18.43798 | -66.01379 | 16 ft | 16 kts | 246° |
| 2026-04-27 20:46 | 18.43754 | -66.01495 | 16 ft | 13 kts | 268° |
| 2026-04-27 20:46 | 18.43816 | -66.01568 | 16 ft | 12 kts | 0° |
| 2026-04-27 20:46 | 18.43861 | -66.01526 | 16 ft | 0 kts | 66° |
| 2026-04-27 20:47 | 18.43941 | -66.01326 | 16 ft | 77 kts | 66° |
| 2026-04-27 20:47 | 18.44275 | -66.00501 | 74 ft | 158 kts | 68° |
| 2026-04-27 20:47 | 18.44738 | -65.99367 | 763 ft | 181 kts | 67° |
| 2026-04-27 20:47 | 18.45657 | -65.98381 | 1485 ft | 213 kts | 24° |
| 2026-04-27 20:48 | 18.47197 | -65.98174 | 2509 ft | 237 kts | 358° |
| 2026-04-27 20:48 | 18.48846 | -65.98589 | 3270 ft | 250 kts | 335° |
| 2026-04-27 20:48 | 18.50151 | -65.99738 | 4094 ft | 246 kts | 314° |
| 2026-04-27 20:48 | 18.51349 | -66.01053 | 5052 ft | 259 kts | 315° |
| 2026-04-27 20:49 | 18.52670 | -66.02361 | 6307 ft | 265 kts | 317° |
| 2026-04-27 20:49 | 18.53911 | -66.03714 | 7638 ft | 262 kts | 311° |
| 2026-04-27 20:49 | 18.55106 | -66.05098 | 8921 ft | 259 kts | 311° |
| 2026-04-27 20:49 | 18.56304 | -66.06478 | 10157 ft | 255 kts | 311° |
| 2026-04-27 20:50 | 18.57477 | -66.07825 | 11327 ft | 253 kts | 310° |
| 2026-04-27 20:50 | 18.58685 | -66.09212 | 11964 ft | 275 kts | 310° |
| 2026-04-27 20:50 | 18.60041 | -66.10764 | 12530 ft | 298 kts | 311° |
| 2026-04-27 20:50 | 18.61465 | -66.12384 | 13415 ft | 307 kts | 311° |
| 2026-04-27 20:51 | 18.62920 | -66.14034 | 14390 ft | 312 kts | 310° |
| 2026-04-27 20:51 | 18.64399 | -66.15711 | 15373 ft | 315 kts | 310° |
| 2026-04-27 20:51 | 18.65897 | -66.17406 | 16320 ft | 318 kts | 310° |
| 2026-04-27 20:51 | 18.67393 | -66.19099 | 17218 ft | 321 kts | 310° |
| 2026-04-27 20:52 | 18.68922 | -66.20828 | 18100 ft | 324 kts | 309° |
| 2026-04-27 20:52 | 18.70460 | -66.22566 | 18948 ft | 326 kts | 309° |
| 2026-04-27 20:52 | 18.72000 | -66.24307 | 19697 ft | 331 kts | 309° |
| 2026-04-27 20:52 | 18.73604 | -66.26124 | 19990 ft | 351 kts | 309° |
| 2026-04-27 20:53 | 18.75349 | -66.28102 | 19993 ft | 378 kts | 309° |
| 2026-04-27 20:53 | 18.77192 | -66.30190 | 19989 ft | 402 kts | 309° |
| 2026-04-27 20:53 | 18.79144 | -66.32395 | 20113 ft | 421 kts | 310° |
| 2026-04-27 20:53 | 18.81164 | -66.34674 | 20524 ft | 430 kts | 310° |
| 2026-04-27 20:54 | 18.85288 | -66.39324 | 21680 ft | 437 kts | 310° |
| 2026-04-27 20:54 | 18.87364 | -66.41666 | 22250 ft | 439 kts | 309° |
| 2026-04-27 20:54 | 18.89477 | -66.44052 | 22798 ft | 442 kts | 309° |
| 2026-04-27 20:55 | 18.91555 | -66.46399 | 23343 ft | 444 kts | 309° |
| 2026-04-27 20:55 | 18.93738 | -66.48754 | 23846 ft | 448 kts | 312° |
| 2026-04-27 20:55 | 18.95980 | -66.51025 | 24254 ft | 453 kts | 312° |
| 2026-04-27 20:55 | 18.98310 | -66.53323 | 24674 ft | 457 kts | 314° |
| 2026-04-27 20:56 | 19.00649 | -66.55601 | 25041 ft | 460 kts | 312° |
| 2026-04-27 20:56 | 19.02959 | -66.57998 | 25389 ft | 464 kts | 311° |
| 2026-04-27 20:56 | 19.05239 | -66.60357 | 25851 ft | 464 kts | 312° |
| 2026-04-27 20:56 | 19.07558 | -66.62753 | 26235 ft | 465 kts | 309° |
| 2026-04-27 20:57 | 19.09664 | -66.65356 | 26673 ft | 462 kts | 304° |
| 2026-04-27 20:57 | 19.11673 | -66.67946 | 27559 ft | 452 kts | 304° |
| 2026-04-27 20:57 | 19.13638 | -66.70418 | 28520 ft | 441 kts | 305° |
| 2026-04-27 20:57 | 19.15650 | -66.72881 | 29170 ft | 438 kts | 304° |
| 2026-04-27 20:58 | 19.17565 | -66.75338 | 29840 ft | 432 kts | 303° |
| 2026-04-27 20:58 | 19.19424 | -66.77756 | 30566 ft | 425 kts | 303° |
| 2026-04-27 20:58 | 19.21300 | -66.80192 | 31262 ft | 420 kts | 303° |
| 2026-04-27 20:58 | 19.23128 | -66.82564 | 31853 ft | 416 kts | 302° |
| 2026-04-27 20:59 | 19.24938 | -66.84913 | 32384 ft | 414 kts | 302° |
| 2026-04-27 20:59 | 19.26740 | -66.87249 | 32913 ft | 411 kts | 302° |
| 2026-04-27 20:59 | 19.28550 | -66.89596 | 33482 ft | 410 kts | 302° |
| 2026-04-27 20:59 | 19.30346 | -66.91924 | 33962 ft | 409 kts | 301° |
| 2026-04-27 21:00 | 19.32149 | -66.94260 | 34456 ft | 408 kts | 301° |
| 2026-04-27 21:00 | 19.33926 | -66.96561 | 34966 ft | 406 kts | 301° |
| 2026-04-27 21:00 | 19.35727 | -66.98892 | 35413 ft | 406 kts | 301° |
| 2026-04-27 21:00 | 19.37495 | -67.01181 | 35885 ft | 404 kts | 301° |
| 2026-04-27 21:01 | 19.39263 | -67.03471 | 36204 ft | 405 kts | 301° |
| 2026-04-27 21:01 | 19.42891 | -67.08180 | 36290 ft | 419 kts | 301° |
| 2026-04-27 21:01 | 19.44756 | -67.10597 | 36398 ft | 423 kts | 301° |
| 2026-04-27 21:02 | 19.46607 | -67.12997 | 36510 ft | 427 kts | 301° |
| 2026-04-27 21:02 | 19.48504 | -67.15455 | 36721 ft | 429 kts | 302° |
| 2026-04-27 21:02 | 19.50385 | -67.17888 | 37098 ft | 427 kts | 301° |
| 2026-04-27 21:02 | 19.52258 | -67.20314 | 37369 ft | 427 kts | 301° |
| 2026-04-27 21:03 | 19.54124 | -67.22731 | 37680 ft | 426 kts | 301° |
| 2026-04-27 21:03 | 19.56013 | -67.25178 | 37967 ft | 425 kts | 301° |
| 2026-04-27 21:03 | 19.57876 | -67.27595 | 38181 ft | 426 kts | 301° |
| 2026-04-27 21:03 | 19.59763 | -67.30043 | 38367 ft | 427 kts | 301° |
| 2026-04-27 21:04 | 19.61636 | -67.32474 | 38593 ft | 427 kts | 301° |
| 2026-04-27 21:04 | 19.63495 | -67.34887 | 38860 ft | 426 kts | 301° |
| 2026-04-27 21:04 | 19.65375 | -67.37326 | 39161 ft | 424 kts | 301° |
| 2026-04-27 21:04 | 19.67223 | -67.39726 | 39422 ft | 423 kts | 301° |
| 2026-04-27 21:05 | 19.69094 | -67.42157 | 39656 ft | 422 kts | 301° |
| 2026-04-27 21:05 | 19.70950 | -67.44571 | 39837 ft | 422 kts | 301° |
| 2026-04-27 21:05 | 19.72811 | -67.46993 | 39873 ft | 425 kts | 301° |
| 2026-04-27 21:06 | 19.76553 | -67.51866 | 39990 ft | 429 kts | 301° |
| 2026-04-27 21:06 | 19.80329 | -67.56786 | 40002 ft | 433 kts | 301° |
| 2026-04-27 21:07 | 19.84167 | -67.61792 | 39994 ft | 437 kts | 302° |
| 2026-04-27 21:07 | 19.87994 | -67.66784 | 39993 ft | 441 kts | 302° |
| 2026-04-27 21:08 | 19.91891 | -67.71873 | 39988 ft | 445 kts | 301° |
| 2026-04-27 21:08 | 19.95803 | -67.76985 | 39991 ft | 449 kts | 301° |
| 2026-04-27 21:09 | 19.99756 | -67.82154 | 39987 ft | 453 kts | 301° |
| 2026-04-27 21:09 | 20.03721 | -67.87343 | 39988 ft | 453 kts | 302° |
| 2026-04-27 21:10 | 20.07687 | -67.92535 | 39989 ft | 452 kts | 301° |
| 2026-04-27 21:10 | 20.11641 | -67.97718 | 39995 ft | 451 kts | 301° |
| 2026-04-27 21:11 | 20.15577 | -68.02882 | 39994 ft | 449 kts | 301° |
| 2026-04-27 21:11 | 20.19506 | -68.08044 | 39991 ft | 450 kts | 301° |
| 2026-04-27 21:12 | 20.23451 | -68.13231 | 39999 ft | 450 kts | 301° |
| 2026-04-27 21:12 | 20.27379 | -68.18399 | 39996 ft | 449 kts | 301° |
| 2026-04-27 21:13 | 20.31299 | -68.23562 | 39989 ft | 449 kts | 301° |
| 2026-04-27 21:13 | 20.35208 | -68.28714 | 39993 ft | 448 kts | 301° |
| 2026-04-27 21:14 | 20.39112 | -68.33865 | 39993 ft | 448 kts | 301° |
| 2026-04-27 21:14 | 20.43015 | -68.39027 | 39997 ft | 447 kts | 300° |
| 2026-04-27 21:15 | 20.46305 | -68.44556 | 39994 ft | 439 kts | 292° |
| 2026-04-27 21:15 | 20.49382 | -68.50150 | 39993 ft | 439 kts | 292° |
| 2026-04-27 21:16 | 20.52466 | -68.55754 | 39992 ft | 438 kts | 292° |
| 2026-04-27 21:16 | 20.55528 | -68.61323 | 39994 ft | 438 kts | 292° |
| 2026-04-27 21:17 | 20.58620 | -68.66949 | 39995 ft | 438 kts | 292° |
| 2026-04-27 21:17 | 20.61685 | -68.72530 | 39992 ft | 438 kts | 292° |
| 2026-04-27 21:18 | 20.64760 | -68.78133 | 39991 ft | 437 kts | 292° |
| 2026-04-27 21:18 | 20.67826 | -68.83724 | 39993 ft | 436 kts | 292° |
| 2026-04-27 21:19 | 20.70881 | -68.89299 | 39995 ft | 435 kts | 292° |
| 2026-04-27 21:19 | 20.73914 | -68.94841 | 39988 ft | 435 kts | 292° |
| 2026-04-27 21:20 | 20.78490 | -69.03211 | 39988 ft | 436 kts | 292° |
| 2026-04-27 21:20 | 20.81537 | -69.08790 | 39986 ft | 436 kts | 292° |
| 2026-04-27 21:21 | 20.84596 | -69.14395 | 39986 ft | 435 kts | 292° |
| 2026-04-27 21:21 | 20.87631 | -69.19965 | 39993 ft | 435 kts | 292° |
| 2026-04-27 21:22 | 20.90673 | -69.25551 | 40003 ft | 435 kts | 292° |
| 2026-04-27 21:22 | 20.93716 | -69.31144 | 39996 ft | 434 kts | 292° |
| 2026-04-27 21:23 | 20.96732 | -69.36693 | 39985 ft | 434 kts | 292° |
| 2026-04-27 21:23 | 20.99764 | -69.42279 | 39994 ft | 434 kts | 292° |
| 2026-04-27 21:24 | 21.02780 | -69.47840 | 39986 ft | 435 kts | 292° |
| 2026-04-27 21:24 | 21.05810 | -69.53431 | 39987 ft | 434 kts | 292° |
| 2026-04-27 21:25 | 21.08833 | -69.59016 | 39979 ft | 434 kts | 292° |
| 2026-04-27 21:25 | 21.11842 | -69.64579 | 39985 ft | 433 kts | 292° |
| 2026-04-27 21:26 | 21.14846 | -69.70143 | 39990 ft | 434 kts | 292° |
| 2026-04-27 21:26 | 21.17864 | -69.75736 | 39988 ft | 434 kts | 292° |
| 2026-04-27 21:27 | 21.20888 | -69.81345 | 39989 ft | 434 kts | 292° |
| 2026-04-27 21:27 | 21.23891 | -69.86922 | 39989 ft | 434 kts | 292° |
| 2026-04-27 21:28 | 21.26906 | -69.92525 | 39990 ft | 434 kts | 292° |
| 2026-04-27 21:28 | 21.29917 | -69.98128 | 39987 ft | 434 kts | 292° |
| 2026-04-27 21:29 | 21.32917 | -70.03716 | 39988 ft | 434 kts | 292° |
| 2026-04-27 21:29 | 21.35914 | -70.09304 | 39990 ft | 433 kts | 292° |
| 2026-04-27 21:30 | 21.38904 | -70.14885 | 39990 ft | 433 kts | 292° |
| 2026-04-27 21:30 | 21.41904 | -70.20491 | 39989 ft | 433 kts | 292° |
| 2026-04-27 21:31 | 21.44897 | -70.26088 | 39990 ft | 432 kts | 292° |
| 2026-04-27 21:31 | 21.47880 | -70.31673 | 39987 ft | 432 kts | 292° |
| 2026-04-27 21:32 | 21.50865 | -70.37267 | 39989 ft | 432 kts | 293° |
| 2026-04-27 21:32 | 21.53826 | -70.42822 | 39989 ft | 431 kts | 292° |
| 2026-04-27 21:33 | 21.56797 | -70.48402 | 39989 ft | 431 kts | 293° |
| 2026-04-27 21:33 | 21.59761 | -70.53975 | 39989 ft | 431 kts | 293° |
| 2026-04-27 21:34 | 21.62733 | -70.59569 | 39989 ft | 431 kts | 293° |
| 2026-04-27 21:34 | 21.65700 | -70.65159 | 39987 ft | 431 kts | 292° |
| 2026-04-27 21:35 | 21.68666 | -70.70753 | 39990 ft | 431 kts | 293° |
| 2026-04-27 21:35 | 21.71604 | -70.76301 | 39987 ft | 431 kts | 292° |
| 2026-04-27 21:36 | 21.74561 | -70.81889 | 39987 ft | 430 kts | 292° |
| 2026-04-27 21:36 | 21.77522 | -70.87491 | 39989 ft | 429 kts | 292° |
| 2026-04-27 21:37 | 21.80449 | -70.93034 | 39989 ft | 429 kts | 292° |
| 2026-04-27 21:37 | 21.83394 | -70.98617 | 39988 ft | 429 kts | 293° |
| 2026-04-27 21:38 | 21.86332 | -71.04192 | 39989 ft | 428 kts | 293° |
| 2026-04-27 21:38 | 21.89257 | -71.09750 | 39989 ft | 427 kts | 293° |
| 2026-04-27 21:39 | 21.92178 | -71.15305 | 39988 ft | 426 kts | 293° |
| 2026-04-27 21:39 | 21.95094 | -71.20857 | 39989 ft | 426 kts | 293° |
| 2026-04-27 21:40 | 21.98003 | -71.26402 | 39988 ft | 425 kts | 293° |
| 2026-04-27 21:40 | 22.00899 | -71.31926 | 39988 ft | 425 kts | 293° |
| 2026-04-27 21:41 | 22.03806 | -71.37479 | 39989 ft | 426 kts | 293° |
| 2026-04-27 21:41 | 22.06692 | -71.42997 | 39989 ft | 426 kts | 293° |
| 2026-04-27 21:42 | 22.09598 | -71.48560 | 39990 ft | 426 kts | 293° |
| 2026-04-27 21:42 | 22.12491 | -71.54102 | 39988 ft | 425 kts | 293° |
| 2026-04-27 21:43 | 22.15377 | -71.59637 | 39987 ft | 424 kts | 293° |
| 2026-04-27 21:43 | 22.18260 | -71.65173 | 39988 ft | 424 kts | 293° |
| 2026-04-27 21:44 | 22.21139 | -71.70707 | 39990 ft | 424 kts | 293° |
| 2026-04-27 21:44 | 22.24028 | -71.76266 | 39989 ft | 423 kts | 293° |
| 2026-04-27 21:45 | 22.26886 | -71.81770 | 39988 ft | 422 kts | 293° |
| 2026-04-27 21:45 | 22.29740 | -71.87273 | 39990 ft | 420 kts | 292° |
| 2026-04-27 21:46 | 22.32580 | -71.92756 | 39989 ft | 420 kts | 292° |
| 2026-04-27 21:46 | 22.35438 | -71.98278 | 39993 ft | 419 kts | 292° |
| 2026-04-27 21:47 | 22.38253 | -72.03725 | 39997 ft | 419 kts | 293° |
| 2026-04-27 21:47 | 22.41099 | -72.09236 | 39994 ft | 419 kts | 292° |
| 2026-04-27 21:48 | 22.43924 | -72.14713 | 39996 ft | 419 kts | 293° |
| 2026-04-27 21:48 | 22.46749 | -72.20195 | 39997 ft | 419 kts | 293° |
| 2026-04-27 21:49 | 22.49591 | -72.25716 | 39998 ft | 419 kts | 293° |
| 2026-04-27 21:49 | 22.52420 | -72.31217 | 39997 ft | 419 kts | 293° |
| 2026-04-27 21:50 | 22.55243 | -72.36713 | 40001 ft | 419 kts | 293° |
| 2026-04-27 21:50 | 22.58061 | -72.42205 | 40001 ft | 419 kts | 293° |
| 2026-04-27 21:51 | 22.60879 | -72.47703 | 40001 ft | 418 kts | 293° |
| 2026-04-27 21:51 | 22.63688 | -72.53188 | 40002 ft | 418 kts | 293° |
| 2026-04-27 21:52 | 22.66500 | -72.58685 | 40004 ft | 418 kts | 293° |
| 2026-04-27 21:52 | 22.69302 | -72.64169 | 40000 ft | 418 kts | 293° |
| 2026-04-27 21:53 | 22.72112 | -72.69675 | 40004 ft | 418 kts | 293° |
| 2026-04-27 21:53 | 22.74924 | -72.75192 | 40003 ft | 418 kts | 293° |
| 2026-04-27 21:54 | 22.77724 | -72.80698 | 40007 ft | 417 kts | 293° |
| 2026-04-27 21:54 | 22.80513 | -72.86192 | 40005 ft | 417 kts | 292° |
| 2026-04-27 21:55 | 22.83289 | -72.91664 | 40004 ft | 416 kts | 292° |
| 2026-04-27 21:55 | 22.86065 | -72.97145 | 40006 ft | 416 kts | 293° |
| 2026-04-27 21:56 | 22.90225 | -73.05367 | 40005 ft | 415 kts | 293° |
| 2026-04-27 21:57 | 22.93002 | -73.10865 | 40011 ft | 415 kts | 293° |
| 2026-04-27 21:57 | 22.95777 | -73.16363 | 40012 ft | 415 kts | 293° |
| 2026-04-27 21:58 | 22.98532 | -73.21829 | 40009 ft | 415 kts | 293° |
| 2026-04-27 21:58 | 23.01288 | -73.27302 | 40008 ft | 416 kts | 293° |
| 2026-04-27 21:59 | 23.04058 | -73.32809 | 40010 ft | 416 kts | 293° |
| 2026-04-27 21:59 | 23.06823 | -73.38312 | 40010 ft | 416 kts | 293° |
| 2026-04-27 22:00 | 23.09601 | -73.43847 | 40010 ft | 416 kts | 293° |
| 2026-04-27 22:00 | 23.12361 | -73.49352 | 40010 ft | 415 kts | 293° |
| 2026-04-27 22:01 | 23.15112 | -73.54845 | 40008 ft | 414 kts | 293° |
| 2026-04-27 22:01 | 23.17842 | -73.60303 | 40009 ft | 414 kts | 293° |
| 2026-04-27 22:02 | 23.20587 | -73.65796 | 40009 ft | 414 kts | 293° |
| 2026-04-27 22:02 | 23.23329 | -73.71291 | 40008 ft | 414 kts | 293° |
| 2026-04-27 22:03 | 23.26058 | -73.76764 | 40007 ft | 414 kts | 293° |
| 2026-04-27 22:03 | 23.28799 | -73.82266 | 40010 ft | 413 kts | 293° |
| 2026-04-27 22:04 | 23.31515 | -73.87725 | 40007 ft | 413 kts | 293° |
| 2026-04-27 22:04 | 23.34249 | -73.93227 | 40009 ft | 413 kts | 293° |
| 2026-04-27 22:05 | 23.36965 | -73.98698 | 40007 ft | 413 kts | 293° |
| 2026-04-27 22:05 | 23.39689 | -74.04192 | 40009 ft | 412 kts | 293° |
| 2026-04-27 22:06 | 23.42405 | -74.09676 | 40013 ft | 412 kts | 293° |
| 2026-04-27 22:06 | 23.45126 | -74.15175 | 40008 ft | 413 kts | 294° |
| 2026-04-27 22:07 | 23.47829 | -74.20644 | 40011 ft | 413 kts | 294° |
| 2026-04-27 22:07 | 23.50545 | -74.26144 | 40010 ft | 413 kts | 294° |
| 2026-04-27 22:08 | 23.53266 | -74.31663 | 40010 ft | 413 kts | 294° |
| 2026-04-27 22:08 | 23.55969 | -74.37149 | 40009 ft | 413 kts | 294° |
| 2026-04-27 22:09 | 23.58676 | -74.42651 | 40010 ft | 412 kts | 294° |
| 2026-04-27 22:09 | 23.61378 | -74.48148 | 40009 ft | 411 kts | 294° |
| 2026-04-27 22:10 | 23.64066 | -74.53625 | 40011 ft | 411 kts | 294° |
| 2026-04-27 22:10 | 23.66761 | -74.59120 | 40015 ft | 411 kts | 294° |
| 2026-04-27 22:11 | 23.69445 | -74.64600 | 40020 ft | 411 kts | 294° |
| 2026-04-27 22:11 | 23.72136 | -74.70102 | 40024 ft | 411 kts | 294° |
| 2026-04-27 22:12 | 23.74835 | -74.75624 | 40025 ft | 411 kts | 294° |
| 2026-04-27 22:12 | 23.77510 | -74.81103 | 40025 ft | 410 kts | 294° |
| 2026-04-27 22:13 | 23.80193 | -74.86607 | 40024 ft | 410 kts | 294° |
| 2026-04-27 22:13 | 23.82862 | -74.92086 | 40021 ft | 411 kts | 294° |
| 2026-04-27 22:14 | 23.85546 | -74.97604 | 40025 ft | 411 kts | 294° |
| 2026-04-27 22:14 | 23.88204 | -75.03073 | 40027 ft | 411 kts | 294° |
| 2026-04-27 22:15 | 23.90886 | -75.08599 | 40026 ft | 411 kts | 294° |
| 2026-04-27 22:15 | 23.93549 | -75.14092 | 40028 ft | 410 kts | 294° |
| 2026-04-27 22:16 | 23.96219 | -75.19606 | 40032 ft | 411 kts | 294° |
| 2026-04-27 22:16 | 23.98877 | -75.25101 | 40029 ft | 411 kts | 294° |
| 2026-04-27 22:17 | 24.01538 | -75.30610 | 40028 ft | 411 kts | 294° |
| 2026-04-27 22:17 | 24.04194 | -75.36114 | 40030 ft | 411 kts | 294° |
| 2026-04-27 22:18 | 24.06863 | -75.41651 | 40028 ft | 411 kts | 294° |
| 2026-04-27 22:18 | 24.09507 | -75.47142 | 40033 ft | 411 kts | 294° |
| 2026-04-27 22:19 | 24.12172 | -75.52684 | 40030 ft | 411 kts | 294° |
| 2026-04-27 22:19 | 24.14824 | -75.58205 | 40031 ft | 412 kts | 295° |
| 2026-04-27 22:20 | 24.17484 | -75.63748 | 40027 ft | 412 kts | 295° |
| 2026-04-27 22:20 | 24.20138 | -75.69286 | 40032 ft | 412 kts | 295° |
| 2026-04-27 22:21 | 24.22811 | -75.74871 | 40022 ft | 412 kts | 294° |
| 2026-04-27 22:21 | 24.25454 | -75.80399 | 40032 ft | 411 kts | 295° |
| 2026-04-27 22:22 | 24.28113 | -75.85970 | 40026 ft | 411 kts | 294° |
| 2026-04-27 22:22 | 24.30760 | -75.91519 | 40031 ft | 412 kts | 295° |
| 2026-04-27 22:23 | 24.33410 | -75.97073 | 40030 ft | 412 kts | 295° |
| 2026-04-27 22:23 | 24.36052 | -76.02630 | 40027 ft | 413 kts | 295° |
| 2026-04-27 22:24 | 24.38693 | -76.08187 | 40031 ft | 413 kts | 295° |
| 2026-04-27 22:24 | 24.41337 | -76.13758 | 40031 ft | 413 kts | 295° |
| 2026-04-27 22:25 | 24.43982 | -76.19338 | 40029 ft | 413 kts | 295° |
| 2026-04-27 22:25 | 24.46625 | -76.24919 | 40029 ft | 413 kts | 295° |
| 2026-04-27 22:26 | 24.49262 | -76.30489 | 40028 ft | 413 kts | 295° |
| 2026-04-27 22:26 | 24.51907 | -76.36090 | 40028 ft | 413 kts | 295° |
| 2026-04-27 22:27 | 24.54552 | -76.41697 | 40024 ft | 413 kts | 295° |
| 2026-04-27 22:27 | 24.57181 | -76.47277 | 40025 ft | 413 kts | 295° |
| 2026-04-27 22:28 | 24.59823 | -76.52891 | 40028 ft | 414 kts | 295° |
| 2026-04-27 22:28 | 24.62455 | -76.58489 | 40024 ft | 413 kts | 295° |
| 2026-04-27 22:29 | 24.65085 | -76.64089 | 40023 ft | 414 kts | 296° |
| 2026-04-27 22:29 | 24.67714 | -76.69697 | 40022 ft | 414 kts | 295° |
| 2026-04-27 22:30 | 24.70340 | -76.75300 | 40024 ft | 414 kts | 295° |
| 2026-04-27 22:30 | 24.72980 | -76.80942 | 40020 ft | 414 kts | 295° |
| 2026-04-27 22:31 | 24.75601 | -76.86551 | 40024 ft | 414 kts | 295° |
| 2026-04-27 22:31 | 24.78221 | -76.92166 | 40032 ft | 414 kts | 296° |
| 2026-04-27 22:32 | 24.80842 | -76.97789 | 40024 ft | 414 kts | 296° |
| 2026-04-27 22:32 | 24.83472 | -77.03437 | 40026 ft | 414 kts | 296° |
| 2026-04-27 22:33 | 24.86092 | -77.09072 | 40029 ft | 414 kts | 296° |
| 2026-04-27 22:33 | 24.88703 | -77.14693 | 40028 ft | 415 kts | 296° |
| 2026-04-27 22:34 | 24.91326 | -77.20348 | 40027 ft | 415 kts | 296° |
| 2026-04-27 22:34 | 24.93933 | -77.25975 | 40029 ft | 415 kts | 296° |
| 2026-04-27 22:35 | 24.96549 | -77.31628 | 40026 ft | 415 kts | 296° |
| 2026-04-27 22:35 | 24.99176 | -77.37311 | 40021 ft | 414 kts | 296° |
| 2026-04-27 22:36 | 25.01787 | -77.42956 | 40024 ft | 414 kts | 297° |
| 2026-04-27 22:36 | 25.05115 | -77.48132 | 40011 ft | 417 kts | 307° |
| 2026-04-27 22:37 | 25.08783 | -77.53095 | 40023 ft | 417 kts | 307° |
| 2026-04-27 22:37 | 25.12428 | -77.58039 | 40013 ft | 418 kts | 307° |
| 2026-04-27 22:38 | 25.16099 | -77.63027 | 40018 ft | 419 kts | 307° |
| 2026-04-27 22:38 | 25.19766 | -77.68014 | 40018 ft | 419 kts | 307° |
| 2026-04-27 22:39 | 25.23429 | -77.73003 | 40003 ft | 418 kts | 307° |
| 2026-04-27 22:39 | 25.27082 | -77.77985 | 40010 ft | 419 kts | 307° |
| 2026-04-27 22:40 | 25.30726 | -77.82959 | 39973 ft | 419 kts | 307° |
| 2026-04-27 22:40 | 25.32542 | -77.85439 | 39519 ft | 410 kts | 307° |
| 2026-04-27 22:40 | 25.34317 | -77.87864 | 39009 ft | 399 kts | 307° |
| 2026-04-27 22:40 | 25.36018 | -77.90190 | 38543 ft | 390 kts | 307° |
| 2026-04-27 22:41 | 25.37717 | -77.92515 | 38054 ft | 381 kts | 307° |
| 2026-04-27 22:41 | 25.39364 | -77.94769 | 37580 ft | 374 kts | 307° |
| 2026-04-27 22:41 | 25.40971 | -77.96970 | 37111 ft | 367 kts | 307° |
| 2026-04-27 22:41 | 25.42556 | -77.99145 | 36629 ft | 367 kts | 308° |
| 2026-04-27 22:42 | 25.44164 | -78.01351 | 36157 ft | 370 kts | 308° |
| 2026-04-27 22:42 | 25.45776 | -78.03563 | 35654 ft | 371 kts | 308° |
| 2026-04-27 22:42 | 25.47396 | -78.05788 | 35171 ft | 373 kts | 308° |
| 2026-04-27 22:42 | 25.49030 | -78.08032 | 34664 ft | 376 kts | 308° |
| 2026-04-27 22:43 | 25.50679 | -78.10298 | 34170 ft | 378 kts | 308° |
| 2026-04-27 22:43 | 25.52324 | -78.12560 | 33666 ft | 380 kts | 308° |
| 2026-04-27 22:43 | 25.53971 | -78.14825 | 33172 ft | 381 kts | 308° |
| 2026-04-27 22:43 | 25.55636 | -78.17116 | 32655 ft | 380 kts | 309° |
| 2026-04-27 22:44 | 25.57265 | -78.19359 | 32161 ft | 377 kts | 309° |
| 2026-04-27 22:44 | 25.58918 | -78.21635 | 31657 ft | 375 kts | 309° |
| 2026-04-27 22:44 | 25.60534 | -78.23861 | 31166 ft | 373 kts | 309° |
| 2026-04-27 22:44 | 25.62161 | -78.26105 | 30670 ft | 371 kts | 309° |
| 2026-04-27 22:45 | 25.63758 | -78.28307 | 30178 ft | 369 kts | 309° |
| 2026-04-27 22:45 | 25.65365 | -78.30525 | 29698 ft | 367 kts | 309° |
| 2026-04-27 22:45 | 25.66938 | -78.32698 | 29209 ft | 365 kts | 309° |
| 2026-04-27 22:45 | 25.68524 | -78.34888 | 28733 ft | 363 kts | 309° |
| 2026-04-27 22:46 | 25.70092 | -78.37055 | 28246 ft | 360 kts | 309° |
| 2026-04-27 22:46 | 25.71663 | -78.39227 | 27797 ft | 360 kts | 309° |
| 2026-04-27 22:46 | 25.73183 | -78.41464 | 27295 ft | 358 kts | 305° |
| 2026-04-27 22:46 | 25.74516 | -78.43756 | 26821 ft | 355 kts | 304° |
| 2026-04-27 22:47 | 25.75824 | -78.46025 | 26360 ft | 351 kts | 304° |
| 2026-04-27 22:47 | 25.77138 | -78.48302 | 25892 ft | 348 kts | 304° |
| 2026-04-27 22:47 | 25.78445 | -78.50569 | 25429 ft | 345 kts | 304° |
| 2026-04-27 22:47 | 25.79716 | -78.52774 | 24981 ft | 343 kts | 304° |
| 2026-04-27 22:48 | 25.81034 | -78.55063 | 24521 ft | 362 kts | 304° |
| 2026-04-27 22:48 | 25.82420 | -78.57467 | 24027 ft | 381 kts | 304° |
| 2026-04-27 22:48 | 25.83865 | -78.59975 | 23516 ft | 385 kts | 304° |
| 2026-04-27 22:48 | 25.85293 | -78.62454 | 23008 ft | 382 kts | 304° |
| 2026-04-27 22:49 | 25.86715 | -78.64927 | 22507 ft | 378 kts | 304° |
| 2026-04-27 22:49 | 25.88132 | -78.67393 | 22002 ft | 376 kts | 304° |
| 2026-04-27 22:49 | 25.89534 | -78.69833 | 21503 ft | 374 kts | 304° |
| 2026-04-27 22:49 | 25.90925 | -78.72256 | 21012 ft | 371 kts | 303° |
| 2026-04-27 22:50 | 25.92302 | -78.74654 | 20524 ft | 370 kts | 303° |
| 2026-04-27 22:50 | 25.93677 | -78.77052 | 20034 ft | 368 kts | 304° |
| 2026-04-27 22:50 | 25.95044 | -78.79437 | 19548 ft | 367 kts | 303° |
| 2026-04-27 22:50 | 25.96409 | -78.81819 | 19060 ft | 365 kts | 303° |
| 2026-04-27 22:51 | 25.97766 | -78.84190 | 18579 ft | 364 kts | 303° |
| 2026-04-27 22:51 | 25.99123 | -78.86561 | 18096 ft | 362 kts | 303° |
| 2026-04-27 22:51 | 26.00461 | -78.88901 | 17617 ft | 361 kts | 304° |
| 2026-04-27 22:51 | 26.01801 | -78.91245 | 17048 ft | 359 kts | 303° |
| 2026-04-27 22:52 | 26.03136 | -78.93581 | 16609 ft | 356 kts | 303° |
| 2026-04-27 22:52 | 26.04449 | -78.95881 | 16134 ft | 354 kts | 303° |
| 2026-04-27 22:52 | 26.05771 | -78.98196 | 15664 ft | 351 kts | 303° |
| 2026-04-27 22:52 | 26.07067 | -79.00469 | 15208 ft | 348 kts | 303° |
| 2026-04-27 22:53 | 26.08351 | -79.02721 | 14759 ft | 346 kts | 304° |
| 2026-04-27 22:53 | 26.09628 | -79.04961 | 14305 ft | 344 kts | 304° |
| 2026-04-27 22:53 | 26.10913 | -79.07218 | 13851 ft | 341 kts | 303° |
| 2026-04-27 22:53 | 26.12181 | -79.09445 | 13396 ft | 339 kts | 304° |
| 2026-04-27 22:54 | 26.13437 | -79.11652 | 12952 ft | 335 kts | 304° |
| 2026-04-27 22:54 | 26.14688 | -79.13852 | 12504 ft | 329 kts | 304° |
| 2026-04-27 22:54 | 26.15904 | -79.15992 | 12073 ft | 321 kts | 304° |
| 2026-04-27 22:54 | 26.17075 | -79.18054 | 11652 ft | 314 kts | 304° |
| 2026-04-27 22:55 | 26.18245 | -79.20116 | 11237 ft | 308 kts | 304° |
| 2026-04-27 22:55 | 26.19385 | -79.22125 | 10827 ft | 302 kts | 304° |
| 2026-04-27 22:55 | 26.20494 | -79.24081 | 10433 ft | 298 kts | 304° |
| 2026-04-27 22:55 | 26.21600 | -79.26032 | 10040 ft | 293 kts | 304° |
| 2026-04-27 22:56 | 26.22685 | -79.27947 | 9650 ft | 289 kts | 304° |
| 2026-04-27 22:56 | 26.23757 | -79.29839 | 9270 ft | 284 kts | 304° |
| 2026-04-27 22:56 | 26.24799 | -79.31679 | 8893 ft | 280 kts | 304° |
| 2026-04-27 22:56 | 26.25840 | -79.33518 | 8522 ft | 278 kts | 304° |
| 2026-04-27 22:57 | 26.26872 | -79.35340 | 8152 ft | 278 kts | 304° |
| 2026-04-27 22:57 | 26.27894 | -79.37147 | 7787 ft | 278 kts | 304° |
| 2026-04-27 22:57 | 26.28925 | -79.38970 | 7418 ft | 276 kts | 304° |
| 2026-04-27 22:57 | 26.29947 | -79.40778 | 7051 ft | 275 kts | 304° |
| 2026-04-27 22:58 | 26.30975 | -79.42597 | 6681 ft | 273 kts | 304° |
| 2026-04-27 22:58 | 26.31983 | -79.44381 | 6322 ft | 272 kts | 304° |
| 2026-04-27 22:58 | 26.32999 | -79.46181 | 5958 ft | 271 kts | 304° |
| 2026-04-27 22:58 | 26.34006 | -79.47964 | 5599 ft | 269 kts | 304° |
| 2026-04-27 22:59 | 26.34996 | -79.49719 | 5246 ft | 269 kts | 304° |
| 2026-04-27 22:59 | 26.35987 | -79.51477 | 4997 ft | 266 kts | 304° |
| 2026-04-27 22:59 | 26.36970 | -79.53220 | 4963 ft | 267 kts | 304° |
| 2026-04-27 22:59 | 26.37970 | -79.54993 | 4962 ft | 269 kts | 304° |
| 2026-04-27 23:00 | 26.39957 | -79.58523 | 4965 ft | 269 kts | 305° |
| 2026-04-27 23:00 | 26.40943 | -79.60275 | 4967 ft | 269 kts | 305° |
| 2026-04-27 23:00 | 26.41942 | -79.62050 | 4963 ft | 269 kts | 304° |
| 2026-04-27 23:01 | 26.42938 | -79.63821 | 4965 ft | 269 kts | 305° |
| 2026-04-27 23:01 | 26.43941 | -79.65605 | 4965 ft | 269 kts | 304° |
| 2026-04-27 23:01 | 26.44927 | -79.67361 | 4969 ft | 269 kts | 304° |
| 2026-04-27 23:01 | 26.45928 | -79.69142 | 4969 ft | 269 kts | 304° |
| 2026-04-27 23:02 | 26.46932 | -79.70929 | 4967 ft | 269 kts | 304° |
| 2026-04-27 23:02 | 26.47925 | -79.72700 | 4966 ft | 269 kts | 304° |
| 2026-04-27 23:02 | 26.48922 | -79.74477 | 4967 ft | 269 kts | 304° |
| 2026-04-27 23:02 | 26.49909 | -79.76255 | 4970 ft | 269 kts | 302° |
| 2026-04-27 23:03 | 26.50776 | -79.78133 | 4971 ft | 270 kts | 298° |
| 2026-04-27 23:03 | 26.51600 | -79.80026 | 4967 ft | 270 kts | 298° |
| 2026-04-27 23:03 | 26.52431 | -79.81928 | 4973 ft | 270 kts | 298° |
| 2026-04-27 23:03 | 26.53263 | -79.83833 | 4973 ft | 270 kts | 298° |
| 2026-04-27 23:04 | 26.54086 | -79.85720 | 4963 ft | 271 kts | 298° |
| 2026-04-27 23:04 | 26.54921 | -79.87634 | 4975 ft | 271 kts | 298° |
| 2026-04-27 23:04 | 26.55750 | -79.89536 | 4984 ft | 271 kts | 298° |
| 2026-04-27 23:04 | 26.56578 | -79.91438 | 4982 ft | 271 kts | 298° |
| 2026-04-27 23:05 | 26.57408 | -79.93345 | 4978 ft | 271 kts | 298° |
| 2026-04-27 23:05 | 26.58219 | -79.95266 | 4979 ft | 272 kts | 294° |
| 2026-04-27 23:05 | 26.58569 | -79.97356 | 4982 ft | 276 kts | 276° |
| 2026-04-27 23:05 | 26.58664 | -79.99515 | 4976 ft | 276 kts | 275° |
| 2026-04-27 23:06 | 26.58763 | -80.01648 | 4978 ft | 276 kts | 276° |
| 2026-04-27 23:06 | 26.58864 | -80.03807 | 4979 ft | 276 kts | 276° |
| 2026-04-27 23:06 | 26.58922 | -80.05968 | 4979 ft | 277 kts | 272° |
| 2026-04-27 23:06 | 26.58899 | -80.08132 | 4979 ft | 277 kts | 271° |
| 2026-04-27 23:07 | 26.58869 | -80.10309 | 4979 ft | 277 kts | 271° |
| 2026-04-27 23:07 | 26.58839 | -80.12460 | 4811 ft | 280 kts | 272° |
| 2026-04-27 23:07 | 26.58812 | -80.14625 | 4515 ft | 278 kts | 271° |
| 2026-04-27 23:07 | 26.58781 | -80.16795 | 4215 ft | 276 kts | 272° |
| 2026-04-27 23:08 | 26.58742 | -80.18938 | 3919 ft | 275 kts | 272° |
| 2026-04-27 23:08 | 26.58696 | -80.21079 | 3621 ft | 275 kts | 272° |
| 2026-04-27 23:08 | 26.58651 | -80.23244 | 3321 ft | 275 kts | 272° |
| 2026-04-27 23:08 | 26.58605 | -80.25382 | 3045 ft | 274 kts | 272° |
| 2026-04-27 23:09 | 26.58565 | -80.27503 | 2975 ft | 275 kts | 272° |
| 2026-04-27 23:09 | 26.58523 | -80.29662 | 2975 ft | 276 kts | 272° |
| 2026-04-27 23:09 | 26.58505 | -80.31807 | 2972 ft | 275 kts | 277° |
| 2026-04-27 23:09 | 26.59048 | -80.33808 | 2971 ft | 266 kts | 306° |
| 2026-04-27 23:10 | 26.60343 | -80.35228 | 2964 ft | 257 kts | 334° |
| 2026-04-27 23:10 | 26.62023 | -80.35821 | 2960 ft | 250 kts | 359° |
| 2026-04-27 23:10 | 26.63762 | -80.35688 | 2961 ft | 248 kts | 11° |
| 2026-04-27 23:10 | 26.65488 | -80.35522 | 2972 ft | 252 kts | 356° |
| 2026-04-27 23:11 | 26.67246 | -80.35545 | 2906 ft | 249 kts | 20° |
| 2026-04-27 23:11 | 26.68499 | -80.34349 | 2861 ft | 242 kts | 65° |
| 2026-04-27 23:11 | 26.68877 | -80.32585 | 2929 ft | 222 kts | 78° |
| 2026-04-27 23:11 | 26.69031 | -80.30894 | 2817 ft | 211 kts | 86° |
| 2026-04-27 23:12 | 26.69076 | -80.29315 | 2723 ft | 200 kts | 86° |
| 2026-04-27 23:12 | 26.69043 | -80.27755 | 2482 ft | 197 kts | 90° |
| 2026-04-27 23:12 | 26.68951 | -80.26276 | 2454 ft | 179 kts | 90° |
| 2026-04-27 23:12 | 26.68860 | -80.24934 | 2422 ft | 183 kts | 89° |
| 2026-04-27 23:13 | 26.68808 | -80.23452 | 2586 ft | 190 kts | 88° |
| 2026-04-27 23:13 | 26.68731 | -80.21995 | 2394 ft | 186 kts | 89° |
| 2026-04-27 23:13 | 26.68681 | -80.20606 | 2338 ft | 177 kts | 88° |
| 2026-04-27 23:13 | 26.68660 | -80.19213 | 1972 ft | 177 kts | 87° |
| 2026-04-27 23:14 | 26.68613 | -80.17928 | 1635 ft | 154 kts | 89° |
| 2026-04-27 23:14 | 26.68555 | -80.16840 | 1497 ft | 134 kts | 86° |
| 2026-04-27 23:14 | 26.68525 | -80.15835 | 1126 ft | 130 kts | 88° |
| 2026-04-27 23:14 | 26.68473 | -80.14861 | 810 ft | 118 kts | 87° |
| 2026-04-27 23:15 | 26.68448 | -80.13905 | 650 ft | 122 kts | 85° |
| 2026-04-27 23:15 | 26.68418 | -80.12954 | 479 ft | 126 kts | 88° |
| 2026-04-27 23:15 | 26.68373 | -80.11971 | 316 ft | 126 kts | 89° |
| 2026-04-27 23:15 | 26.68329 | -80.11020 | 124 ft | 119 kts | 88° |
| 2026-04-27 23:16 | 26.68287 | -80.10081 | 29 ft | 118 kts | 89° |
| 2026-04-27 23:16 | 26.68254 | -80.09290 | 18 ft | 81 kts | 91° |
| 2026-04-27 23:16 | 26.68235 | -80.08858 | 17 ft | 43 kts | 91° |
| 2026-04-27 23:16 | 26.68190 | -80.08599 | 17 ft | 27 kts | 128° |
| 2026-04-27 23:17 | 26.68091 | -80.08498 | 17 ft | 15 kts | 139° |
| 2026-04-27 23:17 | 26.68047 | -80.08456 | 17 ft | 2 kts | 140° |
| 2026-04-27 23:17 | 26.68008 | -80.08426 | 17 ft | 9 kts | 159° |
| 2026-04-27 23:17 | 26.67992 | -80.08351 | 17 ft | 12 kts | 72° |
| 2026-04-27 23:18 | 26.68015 | -80.08244 | 17 ft | 12 kts | 88° |
| 2026-04-27 23:18 | 26.67943 | -80.08206 | 17 ft | 11 kts | 166° |
| 2026-04-27 23:18 | 26.67914 | -80.08210 | 17 ft | 0 kts | 266° |
| 2026-04-27 23:18 | 26.67914 | -80.08211 | 17 ft | 0 kts | 266° |